Terminal Aerodrome Forecast
Issued by NWS Grand Forks, ND

Home | Current Version | Previous Version | Text Only | Print | Product List | Glossary On
Versions: 1 2 3 4 5 6 7 8 9 10 11 12 13 14 15 16 17 18 19 20 21 22 23 24
000
FTUS43 KFGF 281919 AAC
TAFGFK
TAF AMD
KGFK 281919Z 2819/2918 32017G24KT P6SM VCTS BKN045CB
      TEMPO 2819/2823 -RA BKN070
     FM290000 34017G25KT P6SM BKN045
     FM290300 33013KT P6SM OVC025
     FM290600 33016G24KT P6SM OVC015=

USA.gov is the U.S. government's official web portal to all federal, state and local government web resources and services.